sensor_id;sensor_type;location;lat;lon;timestamp;P1;durP1;ratioP1;P2;durP2;ratioP2
59492;SDS011;45497;43.996;22.876;2023-01-24T00:01:19;8.48;;;3.75;;
59492;SDS011;45497;43.996;22.876;2023-01-24T00:03:45;8.60;;;3.75;;
59492;SDS011;45497;43.996;22.876;2023-01-24T00:06:11;8.75;;;3.65;;
59492;SDS011;45497;43.996;22.876;2023-01-24T00:08:37;7.63;;;3.38;;
59492;SDS011;45497;43.996;22.876;2023-01-24T00:11:03;6.30;;;3.42;;
59492;SDS011;45497;43.996;22.876;2023-01-24T00:13:31;9.10;;;3.88;;
59492;SDS011;45497;43.996;22.876;2023-01-24T00:16:16;9.15;;;3.80;;
59492;SDS011;45497;43.996;22.876;2023-01-24T00:18:43;5.78;;;3.40;;
59492;SDS011;45497;43.996;22.876;2023-01-24T00:21:17;7.43;;;3.50;;
59492;SDS011;45497;43.996;22.876;2023-01-24T00:23:45;8.50;;;3.20;;
59492;SDS011;45497;43.996;22.876;2023-01-24T00:26:12;6.35;;;3.15;;
59492;SDS011;45497;43.996;22.876;2023-01-24T00:28:39;7.30;;;3.35;;
59492;SDS011;45497;43.996;22.876;2023-01-24T00:31:04;6.63;;;3.30;;
59492;SDS011;45497;43.996;22.876;2023-01-24T00:33:31;5.70;;;3.30;;
59492;SDS011;45497;43.996;22.876;2023-01-24T00:35:57;7.07;;;3.33;;
59492;SDS011;45497;43.996;22.876;2023-01-24T00:38:23;6.13;;;3.40;;
59492;SDS011;45497;43.996;22.876;2023-01-24T00:40:49;5.97;;;3.22;;
59492;SDS011;45497;43.996;22.876;2023-01-24T00:43:15;8.10;;;3.10;;
59492;SDS011;45497;43.996;22.876;2023-01-24T00:45:41;6.23;;;3.60;;
59492;SDS011;45497;43.996;22.876;2023-01-24T00:48:09;6.85;;;3.17;;
59492;SDS011;45497;43.996;22.876;2023-01-24T00:50:35;6.47;;;3.28;;
59492;SDS011;45497;43.996;22.876;2023-01-24T00:53:00;6.53;;;3.58;;
59492;SDS011;45497;43.996;22.876;2023-01-24T00:55:26;7.50;;;4.35;;
59492;SDS011;45497;43.996;22.876;2023-01-24T00:57:52;8.23;;;3.57;;
59492;SDS011;45497;43.996;22.876;2023-01-24T01:00:18;4.70;;;3.00;;
59492;SDS011;45497;43.996;22.876;2023-01-24T01:02:43;6.87;;;3.47;;
59492;SDS011;45497;43.996;22.876;2023-01-24T01:05:09;5.27;;;3.07;;
59492;SDS011;45497;43.996;22.876;2023-01-24T01:07:34;7.32;;;3.42;;
59492;SDS011;45497;43.996;22.876;2023-01-24T01:10:00;3.83;;;2.72;;
59492;SDS011;45497;43.996;22.876;2023-01-24T01:12:26;5.97;;;3.15;;
59492;SDS011;45497;43.996;22.876;2023-01-24T01:14:51;6.33;;;3.23;;
59492;SDS011;45497;43.996;22.876;2023-01-24T01:17:17;4.90;;;3.10;;
59492;SDS011;45497;43.996;22.876;2023-01-24T01:19:43;6.95;;;3.28;;
59492;SDS011;45497;43.996;22.876;2023-01-24T01:22:08;6.47;;;3.28;;
59492;SDS011;45497;43.996;22.876;2023-01-24T01:24:34;4.40;;;2.90;;
59492;SDS011;45497;43.996;22.876;2023-01-24T01:27:00;5.60;;;2.97;;
59492;SDS011;45497;43.996;22.876;2023-01-24T01:29:25;4.88;;;2.92;;
59492;SDS011;45497;43.996;22.876;2023-01-24T01:31:51;7.43;;;3.20;;
59492;SDS011;45497;43.996;22.876;2023-01-24T01:34:16;7.90;;;3.20;;
59492;SDS011;45497;43.996;22.876;2023-01-24T01:36:42;4.53;;;2.80;;
59492;SDS011;45497;43.996;22.876;2023-01-24T01:39:08;5.30;;;2.93;;
59492;SDS011;45497;43.996;22.876;2023-01-24T01:41:33;5.37;;;3.20;;
59492;SDS011;45497;43.996;22.876;2023-01-24T01:47:03;7.35;;;3.03;;
59492;SDS011;45497;43.996;22.876;2023-01-24T01:50:03;5.40;;;2.92;;
59492;SDS011;45497;43.996;22.876;2023-01-24T01:52:39;6.00;;;3.30;;
59492;SDS011;45497;43.996;22.876;2023-01-24T01:55:12;6.38;;;2.70;;
59492;SDS011;45497;43.996;22.876;2023-01-24T01:57:43;4.40;;;2.53;;
59492;SDS011;45497;43.996;22.876;2023-01-24T02:00:13;4.43;;;2.50;;
59492;SDS011;45497;43.996;22.876;2023-01-24T02:02:43;5.40;;;2.92;;
59492;SDS011;45497;43.996;22.876;2023-01-24T02:05:14;4.72;;;2.85;;
59492;SDS011;45497;43.996;22.876;2023-01-24T02:07:57;6.95;;;3.00;;
59492;SDS011;45497;43.996;22.876;2023-01-24T02:10:27;5.80;;;2.75;;
59492;SDS011;45497;43.996;22.876;2023-01-24T02:13:15;6.00;;;3.05;;
59492;SDS011;45497;43.996;22.876;2023-01-24T02:15:42;5.45;;;2.92;;
59492;SDS011;45497;43.996;22.876;2023-01-24T02:18:31;5.20;;;3.13;;
59492;SDS011;45497;43.996;22.876;2023-01-24T02:20:59;5.13;;;2.78;;
59492;SDS011;45497;43.996;22.876;2023-01-24T02:26:13;5.35;;;2.58;;
59492;SDS011;45497;43.996;22.876;2023-01-24T02:28:44;5.93;;;2.70;;
59492;SDS011;45497;43.996;22.876;2023-01-24T02:31:14;4.68;;;2.25;;
59492;SDS011;45497;43.996;22.876;2023-01-24T02:33:40;5.03;;;2.87;;
59492;SDS011;45497;43.996;22.876;2023-01-24T02:38:37;6.90;;;2.70;;
59492;SDS011;45497;43.996;22.876;2023-01-24T02:41:05;4.18;;;2.30;;
59492;SDS011;45497;43.996;22.876;2023-01-24T02:43:42;4.10;;;2.63;;
59492;SDS011;45497;43.996;22.876;2023-01-24T02:46:11;4.30;;;2.20;;
59492;SDS011;45497;43.996;22.876;2023-01-24T02:48:37;3.60;;;2.23;;
59492;SDS011;45497;43.996;22.876;2023-01-24T02:51:02;4.28;;;2.60;;
59492;SDS011;45497;43.996;22.876;2023-01-24T02:53:46;5.53;;;2.80;;
59492;SDS011;45497;43.996;22.876;2023-01-24T02:56:11;7.47;;;3.25;;
59492;SDS011;45497;43.996;22.876;2023-01-24T02:58:55;5.53;;;2.72;;
59492;SDS011;45497;43.996;22.876;2023-01-24T03:01:21;4.78;;;2.60;;
59492;SDS011;45497;43.996;22.876;2023-01-24T03:03:48;6.82;;;2.80;;
59492;SDS011;45497;43.996;22.876;2023-01-24T03:06:16;4.68;;;2.35;;
59492;SDS011;45497;43.996;22.876;2023-01-24T03:08:42;5.22;;;2.40;;
59492;SDS011;45497;43.996;22.876;2023-01-24T03:11:09;5.40;;;4.07;;
59492;SDS011;45497;43.996;22.876;2023-01-24T03:13:36;6.10;;;2.75;;
59492;SDS011;45497;43.996;22.876;2023-01-24T03:16:20;5.90;;;2.63;;
59492;SDS011;45497;43.996;22.876;2023-01-24T03:19:04;4.13;;;2.35;;
59492;SDS011;45497;43.996;22.876;2023-01-24T03:21:49;3.88;;;2.45;;
59492;SDS011;45497;43.996;22.876;2023-01-24T03:24:33;5.20;;;2.50;;
59492;SDS011;45497;43.996;22.876;2023-01-24T03:27:17;4.67;;;2.50;;
59492;SDS011;45497;43.996;22.876;2023-01-24T03:30:02;6.55;;;2.90;;
59492;SDS011;45497;43.996;22.876;2023-01-24T03:32:47;5.65;;;2.78;;
59492;SDS011;45497;43.996;22.876;2023-01-24T03:35:31;4.75;;;2.22;;
59492;SDS011;45497;43.996;22.876;2023-01-24T03:37:57;4.80;;;2.50;;
59492;SDS011;45497;43.996;22.876;2023-01-24T03:40:41;6.35;;;2.47;;
59492;SDS011;45497;43.996;22.876;2023-01-24T03:43:07;6.78;;;2.90;;
59492;SDS011;45497;43.996;22.876;2023-01-24T03:45:34;5.95;;;2.53;;
59492;SDS011;45497;43.996;22.876;2023-01-24T03:48:02;5.63;;;2.33;;
59492;SDS011;45497;43.996;22.876;2023-01-24T03:50:35;4.57;;;2.38;;
59492;SDS011;45497;43.996;22.876;2023-01-24T03:53:20;5.18;;;2.58;;
59492;SDS011;45497;43.996;22.876;2023-01-24T03:55:52;4.93;;;2.27;;
59492;SDS011;45497;43.996;22.876;2023-01-24T03:58:18;5.05;;;2.80;;
59492;SDS011;45497;43.996;22.876;2023-01-24T04:00:44;3.60;;;2.23;;
59492;SDS011;45497;43.996;22.876;2023-01-24T04:03:09;5.00;;;2.20;;
59492;SDS011;45497;43.996;22.876;2023-01-24T04:05:35;7.33;;;2.47;;
59492;SDS011;45497;43.996;22.876;2023-01-24T04:08:01;5.60;;;2.90;;
59492;SDS011;45497;43.996;22.876;2023-01-24T04:10:27;4.47;;;2.60;;
59492;SDS011;45497;43.996;22.876;2023-01-24T04:12:53;5.35;;;2.63;;
59492;SDS011;45497;43.996;22.876;2023-01-24T04:15:21;5.30;;;2.40;;
59492;SDS011;45497;43.996;22.876;2023-01-24T04:17:49;3.75;;;2.47;;
59492;SDS011;45497;43.996;22.876;2023-01-24T04:20:14;5.93;;;2.97;;
59492;SDS011;45497;43.996;22.876;2023-01-24T04:22:41;6.00;;;2.78;;
59492;SDS011;45497;43.996;22.876;2023-01-24T04:25:06;5.55;;;2.75;;
59492;SDS011;45497;43.996;22.876;2023-01-24T04:27:32;7.22;;;3.13;;
59492;SDS011;45497;43.996;22.876;2023-01-24T04:29:58;4.05;;;2.60;;
59492;SDS011;45497;43.996;22.876;2023-01-24T04:32:24;4.88;;;2.80;;
59492;SDS011;45497;43.996;22.876;2023-01-24T04:34:49;5.70;;;2.65;;
59492;SDS011;45497;43.996;22.876;2023-01-24T04:37:15;6.57;;;3.30;;
59492;SDS011;45497;43.996;22.876;2023-01-24T04:39:40;6.10;;;2.90;;
59492;SDS011;45497;43.996;22.876;2023-01-24T04:42:05;6.37;;;2.73;;
59492;SDS011;45497;43.996;22.876;2023-01-24T04:44:31;5.10;;;2.70;;
59492;SDS011;45497;43.996;22.876;2023-01-24T04:46:58;5.80;;;3.30;;
59492;SDS011;45497;43.996;22.876;2023-01-24T04:49:24;5.00;;;2.78;;
59492;SDS011;45497;43.996;22.876;2023-01-24T04:51:50;7.28;;;3.13;;
59492;SDS011;45497;43.996;22.876;2023-01-24T04:54:16;6.80;;;3.78;;
59492;SDS011;45497;43.996;22.876;2023-01-24T04:56:42;8.25;;;3.58;;
59492;SDS011;45497;43.996;22.876;2023-01-24T04:59:09;9.97;;;3.90;;
59492;SDS011;45497;43.996;22.876;2023-01-24T05:01:36;11.18;;;4.10;;
59492;SDS011;45497;43.996;22.876;2023-01-24T05:04:01;8.25;;;3.70;;
59492;SDS011;45497;43.996;22.876;2023-01-24T05:06:28;6.93;;;3.17;;
59492;SDS011;45497;43.996;22.876;2023-01-24T05:08:55;9.18;;;3.60;;
59492;SDS011;45497;43.996;22.876;2023-01-24T05:11:21;7.13;;;2.95;;
59492;SDS011;45497;43.996;22.876;2023-01-24T05:13:48;8.35;;;3.33;;
59492;SDS011;45497;43.996;22.876;2023-01-24T05:16:14;7.28;;;3.50;;
59492;SDS011;45497;43.996;22.876;2023-01-24T05:18:40;7.10;;;3.45;;
59492;SDS011;45497;43.996;22.876;2023-01-24T05:21:06;8.77;;;3.33;;
59492;SDS011;45497;43.996;22.876;2023-01-24T05:23:33;6.93;;;3.10;;
59492;SDS011;45497;43.996;22.876;2023-01-24T05:25:59;8.98;;;3.88;;
59492;SDS011;45497;43.996;22.876;2023-01-24T05:28:25;9.10;;;3.33;;
59492;SDS011;45497;43.996;22.876;2023-01-24T05:30:51;6.22;;;3.47;;
59492;SDS011;45497;43.996;22.876;2023-01-24T05:33:16;8.98;;;3.47;;
59492;SDS011;45497;43.996;22.876;2023-01-24T05:35:42;9.98;;;3.67;;
59492;SDS011;45497;43.996;22.876;2023-01-24T05:38:09;8.77;;;3.67;;
59492;SDS011;45497;43.996;22.876;2023-01-24T05:40:35;8.00;;;3.55;;
59492;SDS011;45497;43.996;22.876;2023-01-24T05:43:00;9.50;;;3.50;;
59492;SDS011;45497;43.996;22.876;2023-01-24T05:45:26;9.10;;;3.90;;
59492;SDS011;45497;43.996;22.876;2023-01-24T05:47:51;7.53;;;3.63;;
59492;SDS011;45497;43.996;22.876;2023-01-24T05:50:17;8.33;;;3.63;;
59492;SDS011;45497;43.996;22.876;2023-01-24T05:52:42;12.57;;;5.27;;
59492;SDS011;45497;43.996;22.876;2023-01-24T05:55:08;9.57;;;4.87;;
59492;SDS011;45497;43.996;22.876;2023-01-24T05:57:33;9.83;;;5.37;;
59492;SDS011;45497;43.996;22.876;2023-01-24T06:00:02;12.43;;;5.47;;
59492;SDS011;45497;43.996;22.876;2023-01-24T06:02:29;14.30;;;5.80;;
59492;SDS011;45497;43.996;22.876;2023-01-24T06:04:55;9.90;;;5.20;;
59492;SDS011;45497;43.996;22.876;2023-01-24T06:07:20;8.25;;;3.90;;
59492;SDS011;45497;43.996;22.876;2023-01-24T06:09:45;9.13;;;3.90;;
59492;SDS011;45497;43.996;22.876;2023-01-24T06:12:11;13.77;;;5.13;;
59492;SDS011;45497;43.996;22.876;2023-01-24T06:14:36;16.30;;;5.87;;
59492;SDS011;45497;43.996;22.876;2023-01-24T06:17:02;14.52;;;5.78;;
59492;SDS011;45497;43.996;22.876;2023-01-24T06:19:27;9.77;;;4.43;;
59492;SDS011;45497;43.996;22.876;2023-01-24T06:21:59;10.55;;;4.65;;
59492;SDS011;45497;43.996;22.876;2023-01-24T06:24:34;8.55;;;4.53;;
59492;SDS011;45497;43.996;22.876;2023-01-24T06:27:00;6.32;;;2.92;;
59492;SDS011;45497;43.996;22.876;2023-01-24T06:29:25;8.15;;;3.30;;
59492;SDS011;45497;43.996;22.876;2023-01-24T06:40:11;6.68;;;3.08;;
59492;SDS011;45497;43.996;22.876;2023-01-24T06:42:38;5.88;;;3.05;;
59492;SDS011;45497;43.996;22.876;2023-01-24T06:45:04;8.68;;;4.20;;
59492;SDS011;45497;43.996;22.876;2023-01-24T06:47:31;8.37;;;3.50;;
59492;SDS011;45497;43.996;22.876;2023-01-24T06:49:56;7.80;;;3.73;;
59492;SDS011;45497;43.996;22.876;2023-01-24T06:52:22;8.73;;;3.70;;
59492;SDS011;45497;43.996;22.876;2023-01-24T06:54:48;7.47;;;4.13;;
59492;SDS011;45497;43.996;22.876;2023-01-24T06:57:13;8.97;;;4.10;;
59492;SDS011;45497;43.996;22.876;2023-01-24T06:59:39;9.52;;;4.50;;
59492;SDS011;45497;43.996;22.876;2023-01-24T07:02:04;8.33;;;4.13;;
59492;SDS011;45497;43.996;22.876;2023-01-24T07:04:30;8.18;;;4.10;;
59492;SDS011;45497;43.996;22.876;2023-01-24T07:06:55;8.00;;;3.80;;
59492;SDS011;45497;43.996;22.876;2023-01-24T07:09:21;7.50;;;4.17;;
59492;SDS011;45497;43.996;22.876;2023-01-24T07:11:47;6.65;;;3.78;;
59492;SDS011;45497;43.996;22.876;2023-01-24T07:14:17;7.25;;;4.13;;
59492;SDS011;45497;43.996;22.876;2023-01-24T07:16:43;6.88;;;4.38;;
59492;SDS011;45497;43.996;22.876;2023-01-24T07:19:18;11.77;;;4.82;;
59492;SDS011;45497;43.996;22.876;2023-01-24T07:21:50;8.98;;;4.68;;
59492;SDS011;45497;43.996;22.876;2023-01-24T07:24:18;9.27;;;4.85;;
59492;SDS011;45497;43.996;22.876;2023-01-24T07:26:46;8.15;;;4.55;;
59492;SDS011;45497;43.996;22.876;2023-01-24T07:29:13;7.80;;;4.57;;
59492;SDS011;45497;43.996;22.876;2023-01-24T07:31:39;7.38;;;4.80;;
59492;SDS011;45497;43.996;22.876;2023-01-24T07:34:04;5.93;;;3.47;;
59492;SDS011;45497;43.996;22.876;2023-01-24T07:36:30;8.70;;;4.53;;
59492;SDS011;45497;43.996;22.876;2023-01-24T07:38:56;9.17;;;5.30;;
59492;SDS011;45497;43.996;22.876;2023-01-24T07:41:22;10.07;;;5.60;;
59492;SDS011;45497;43.996;22.876;2023-01-24T07:43:48;9.85;;;5.65;;
59492;SDS011;45497;43.996;22.876;2023-01-24T07:46:13;9.13;;;5.43;;
59492;SDS011;45497;43.996;22.876;2023-01-24T07:48:39;6.60;;;4.30;;
59492;SDS011;45497;43.996;22.876;2023-01-24T07:51:05;10.03;;;5.73;;
59492;SDS011;45497;43.996;22.876;2023-01-24T07:53:30;8.63;;;5.00;;
59492;SDS011;45497;43.996;22.876;2023-01-24T07:55:59;10.20;;;5.87;;
59492;SDS011;45497;43.996;22.876;2023-01-24T07:58:25;8.25;;;5.20;;
59492;SDS011;45497;43.996;22.876;2023-01-24T08:00:51;10.57;;;4.60;;
59492;SDS011;45497;43.996;22.876;2023-01-24T08:03:16;12.23;;;6.63;;
59492;SDS011;45497;43.996;22.876;2023-01-24T08:05:42;16.10;;;9.10;;
59492;SDS011;45497;43.996;22.876;2023-01-24T08:08:08;25.67;;;13.17;;
59492;SDS011;45497;43.996;22.876;2023-01-24T08:10:34;8.87;;;5.13;;
59492;SDS011;45497;43.996;22.876;2023-01-24T08:13:00;8.88;;;4.70;;
59492;SDS011;45497;43.996;22.876;2023-01-24T08:15:25;8.70;;;5.67;;
59492;SDS011;45497;43.996;22.876;2023-01-24T08:17:51;8.47;;;5.00;;
59492;SDS011;45497;43.996;22.876;2023-01-24T08:20:16;9.83;;;4.80;;
59492;SDS011;45497;43.996;22.876;2023-01-24T08:22:42;7.88;;;5.05;;
59492;SDS011;45497;43.996;22.876;2023-01-24T08:25:08;11.07;;;5.50;;
59492;SDS011;45497;43.996;22.876;2023-01-24T08:27:33;9.05;;;4.80;;
59492;SDS011;45497;43.996;22.876;2023-01-24T08:29:59;9.35;;;4.55;;
59492;SDS011;45497;43.996;22.876;2023-01-24T08:32:24;8.50;;;4.78;;
59492;SDS011;45497;43.996;22.876;2023-01-24T08:34:50;8.50;;;5.07;;
59492;SDS011;45497;43.996;22.876;2023-01-24T08:37:15;10.57;;;5.30;;
59492;SDS011;45497;43.996;22.876;2023-01-24T08:39:41;7.90;;;5.03;;
59492;SDS011;45497;43.996;22.876;2023-01-24T08:42:07;7.20;;;4.50;;
59492;SDS011;45497;43.996;22.876;2023-01-24T08:44:33;8.45;;;5.03;;
59492;SDS011;45497;43.996;22.876;2023-01-24T08:46:58;8.90;;;5.03;;
59492;SDS011;45497;43.996;22.876;2023-01-24T08:49:24;9.95;;;5.90;;
59492;SDS011;45497;43.996;22.876;2023-01-24T08:51:49;9.48;;;5.60;;
59492;SDS011;45497;43.996;22.876;2023-01-24T08:54:23;10.75;;;5.72;;
59492;SDS011;45497;43.996;22.876;2023-01-24T08:56:50;10.65;;;5.55;;
59492;SDS011;45497;43.996;22.876;2023-01-24T08:59:15;9.63;;;5.30;;
59492;SDS011;45497;43.996;22.876;2023-01-24T09:01:40;9.70;;;5.30;;
59492;SDS011;45497;43.996;22.876;2023-01-24T09:04:07;7.17;;;3.90;;
59492;SDS011;45497;43.996;22.876;2023-01-24T09:06:34;9.13;;;4.18;;
59492;SDS011;45497;43.996;22.876;2023-01-24T09:08:59;10.83;;;4.40;;
59492;SDS011;45497;43.996;22.876;2023-01-24T09:11:24;7.17;;;3.90;;
59492;SDS011;45497;43.996;22.876;2023-01-24T09:13:50;6.77;;;4.10;;
59492;SDS011;45497;43.996;22.876;2023-01-24T09:16:16;6.70;;;4.28;;
59492;SDS011;45497;43.996;22.876;2023-01-24T09:18:41;8.20;;;3.80;;
59492;SDS011;45497;43.996;22.876;2023-01-24T09:21:06;8.43;;;4.17;;
59492;SDS011;45497;43.996;22.876;2023-01-24T09:23:32;8.10;;;3.73;;
59492;SDS011;45497;43.996;22.876;2023-01-24T09:25:57;7.33;;;4.17;;
59492;SDS011;45497;43.996;22.876;2023-01-24T09:28:23;8.27;;;4.57;;
59492;SDS011;45497;43.996;22.876;2023-01-24T09:30:49;6.77;;;4.30;;
59492;SDS011;45497;43.996;22.876;2023-01-24T09:33:16;8.02;;;4.20;;
59492;SDS011;45497;43.996;22.876;2023-01-24T09:35:50;9.02;;;4.78;;
59492;SDS011;45497;43.996;22.876;2023-01-24T09:38:19;7.37;;;4.50;;
59492;SDS011;45497;43.996;22.876;2023-01-24T09:40:50;10.93;;;5.20;;
59492;SDS011;45497;43.996;22.876;2023-01-24T09:48:38;10.50;;;5.53;;
59492;SDS011;45497;43.996;22.876;2023-01-24T09:51:06;12.65;;;6.63;;
59492;SDS011;45497;43.996;22.876;2023-01-24T09:53:44;10.95;;;5.72;;
59492;SDS011;45497;43.996;22.876;2023-01-24T09:56:19;9.65;;;5.65;;
59492;SDS011;45497;43.996;22.876;2023-01-24T10:01:46;11.70;;;5.97;;
59492;SDS011;45497;43.996;22.876;2023-01-24T10:04:13;12.13;;;6.40;;
59492;SDS011;45497;43.996;22.876;2023-01-24T10:06:44;10.55;;;6.25;;
59492;SDS011;45497;43.996;22.876;2023-01-24T10:09:38;9.70;;;6.00;;
59492;SDS011;45497;43.996;22.876;2023-01-24T10:15:42;8.10;;;5.00;;
59492;SDS011;45497;43.996;22.876;2023-01-24T10:23:01;9.02;;;4.90;;
59492;SDS011;45497;43.996;22.876;2023-01-24T10:27:57;10.50;;;5.53;;
59492;SDS011;45497;43.996;22.876;2023-01-24T10:30:39;9.60;;;5.32;;
59492;SDS011;45497;43.996;22.876;2023-01-24T10:33:13;11.30;;;5.97;;
59492;SDS011;45497;43.996;22.876;2023-01-24T10:35:58;9.70;;;5.27;;
59492;SDS011;45497;43.996;22.876;2023-01-24T10:38:29;10.23;;;5.32;;
59492;SDS011;45497;43.996;22.876;2023-01-24T10:40:55;10.23;;;5.27;;
59492;SDS011;45497;43.996;22.876;2023-01-24T10:43:34;8.68;;;5.72;;
59492;SDS011;45497;43.996;22.876;2023-01-24T10:48:41;9.90;;;5.72;;
59492;SDS011;45497;43.996;22.876;2023-01-24T10:51:11;9.52;;;5.40;;
59492;SDS011;45497;43.996;22.876;2023-01-24T10:53:39;10.98;;;5.90;;
59492;SDS011;45497;43.996;22.876;2023-01-24T10:56:05;9.52;;;5.85;;
59492;SDS011;45497;43.996;22.876;2023-01-24T10:58:35;10.88;;;5.80;;
59492;SDS011;45497;43.996;22.876;2023-01-24T11:01:06;11.13;;;6.38;;
59492;SDS011;45497;43.996;22.876;2023-01-24T11:03:38;11.38;;;6.13;;
59492;SDS011;45497;43.996;22.876;2023-01-24T11:06:09;9.73;;;6.25;;
59492;SDS011;45497;43.996;22.876;2023-01-24T11:08:47;12.60;;;7.13;;
59492;SDS011;45497;43.996;22.876;2023-01-24T11:11:24;10.32;;;6.07;;
59492;SDS011;45497;43.996;22.876;2023-01-24T11:13:54;13.80;;;7.15;;
59492;SDS011;45497;43.996;22.876;2023-01-24T11:16:23;13.20;;;6.67;;
59492;SDS011;45497;43.996;22.876;2023-01-24T11:19:00;10.77;;;5.80;;
59492;SDS011;45497;43.996;22.876;2023-01-24T11:21:27;10.00;;;5.60;;
59492;SDS011;45497;43.996;22.876;2023-01-24T11:26:32;8.90;;;4.57;;
59492;SDS011;45497;43.996;22.876;2023-01-24T11:29:03;13.52;;;5.13;;
59492;SDS011;45497;43.996;22.876;2023-01-24T11:31:44;9.88;;;4.40;;
59492;SDS011;45497;43.996;22.876;2023-01-24T11:37:12;8.35;;;4.18;;
59492;SDS011;45497;43.996;22.876;2023-01-24T11:39:57;12.38;;;4.70;;
59492;SDS011;45497;43.996;22.876;2023-01-24T11:53:18;7.38;;;3.70;;
59492;SDS011;45497;43.996;22.876;2023-01-24T12:02:10;6.75;;;4.20;;
59492;SDS011;45497;43.996;22.876;2023-01-24T12:10:42;6.95;;;3.80;;
59492;SDS011;45497;43.996;22.876;2023-01-24T12:13:22;8.13;;;4.50;;
59492;SDS011;45497;43.996;22.876;2023-01-24T12:21:17;8.03;;;4.43;;
59492;SDS011;45497;43.996;22.876;2023-01-24T12:24:06;7.90;;;4.72;;
59492;SDS011;45497;43.996;22.876;2023-01-24T12:26:39;7.65;;;4.07;;
59492;SDS011;45497;43.996;22.876;2023-01-24T12:29:17;9.05;;;4.75;;
59492;SDS011;45497;43.996;22.876;2023-01-24T12:31:58;7.32;;;3.88;;
59492;SDS011;45497;43.996;22.876;2023-01-24T12:34:34;9.95;;;4.50;;
59492;SDS011;45497;43.996;22.876;2023-01-24T12:42:16;7.88;;;4.43;;
59492;SDS011;45497;43.996;22.876;2023-01-24T12:45:05;8.10;;;4.55;;
59492;SDS011;45497;43.996;22.876;2023-01-24T12:50:58;8.57;;;4.70;;
59492;SDS011;45497;43.996;22.876;2023-01-24T12:53:52;8.27;;;4.55;;
59492;SDS011;45497;43.996;22.876;2023-01-24T12:59:06;13.00;;;5.20;;
59492;SDS011;45497;43.996;22.876;2023-01-24T13:07:56;9.38;;;4.57;;
59492;SDS011;45497;43.996;22.876;2023-01-24T13:13:36;8.38;;;4.72;;
59492;SDS011;45497;43.996;22.876;2023-01-24T13:18:52;9.63;;;4.68;;
59492;SDS011;45497;43.996;22.876;2023-01-24T13:21:32;7.88;;;4.70;;
59492;SDS011;45497;43.996;22.876;2023-01-24T13:24:25;10.13;;;5.50;;
59492;SDS011;45497;43.996;22.876;2023-01-24T13:30:20;11.20;;;5.67;;
59492;SDS011;45497;43.996;22.876;2023-01-24T13:32:58;10.73;;;6.30;;
59492;SDS011;45497;43.996;22.876;2023-01-24T13:35:28;10.80;;;5.88;;
59492;SDS011;45497;43.996;22.876;2023-01-24T13:38:05;11.90;;;5.90;;
59492;SDS011;45497;43.996;22.876;2023-01-24T13:40:41;12.25;;;5.53;;
59492;SDS011;45497;43.996;22.876;2023-01-24T13:46:13;12.93;;;6.32;;
59492;SDS011;45497;43.996;22.876;2023-01-24T13:56:26;10.63;;;5.57;;
59492;SDS011;45497;43.996;22.876;2023-01-24T13:58:52;11.98;;;6.65;;
59492;SDS011;45497;43.996;22.876;2023-01-24T14:01:19;11.38;;;6.47;;
59492;SDS011;45497;43.996;22.876;2023-01-24T14:03:59;14.18;;;6.50;;
59492;SDS011;45497;43.996;22.876;2023-01-24T14:06:38;12.70;;;6.45;;
59492;SDS011;45497;43.996;22.876;2023-01-24T14:09:12;12.07;;;6.07;;
59492;SDS011;45497;43.996;22.876;2023-01-24T14:11:38;11.07;;;5.47;;
59492;SDS011;45497;43.996;22.876;2023-01-24T14:14:26;12.65;;;6.55;;
59492;SDS011;45497;43.996;22.876;2023-01-24T14:19:20;17.08;;;6.22;;
59492;SDS011;45497;43.996;22.876;2023-01-24T14:22:02;17.13;;;6.88;;
59492;SDS011;45497;43.996;22.876;2023-01-24T14:27:45;12.02;;;6.05;;
59492;SDS011;45497;43.996;22.876;2023-01-24T14:38:14;13.23;;;7.00;;
59492;SDS011;45497;43.996;22.876;2023-01-24T14:40:42;11.38;;;6.07;;
59492;SDS011;45497;43.996;22.876;2023-01-24T14:43:13;11.27;;;6.05;;
59492;SDS011;45497;43.996;22.876;2023-01-24T14:45:39;14.90;;;6.43;;
59492;SDS011;45497;43.996;22.876;2023-01-24T14:48:08;12.23;;;7.20;;
59492;SDS011;45497;43.996;22.876;2023-01-24T14:50:36;13.50;;;6.90;;
59492;SDS011;45497;43.996;22.876;2023-01-24T14:53:20;13.45;;;7.20;;
59492;SDS011;45497;43.996;22.876;2023-01-24T14:55:51;13.77;;;7.28;;
59492;SDS011;45497;43.996;22.876;2023-01-24T14:58:20;12.25;;;6.82;;
59492;SDS011;45497;43.996;22.876;2023-01-24T15:00:46;13.63;;;7.15;;
59492;SDS011;45497;43.996;22.876;2023-01-24T15:03:17;12.80;;;6.73;;
59492;SDS011;45497;43.996;22.876;2023-01-24T15:05:51;10.88;;;6.10;;
59492;SDS011;45497;43.996;22.876;2023-01-24T15:08:19;12.52;;;6.90;;
59492;SDS011;45497;43.996;22.876;2023-01-24T15:10:45;13.23;;;6.82;;
59492;SDS011;45497;43.996;22.876;2023-01-24T15:13:20;14.73;;;7.38;;
59492;SDS011;45497;43.996;22.876;2023-01-24T15:15:50;12.60;;;7.20;;
59492;SDS011;45497;43.996;22.876;2023-01-24T15:19:18;13.20;;;6.87;;
59492;SDS011;45497;43.996;22.876;2023-01-24T15:21:17;13.20;;;6.88;;
59492;SDS011;45497;43.996;22.876;2023-01-24T15:23:47;11.98;;;6.03;;
59492;SDS011;45497;43.996;22.876;2023-01-24T15:26:20;13.45;;;7.03;;
59492;SDS011;45497;43.996;22.876;2023-01-24T15:28:48;10.65;;;6.30;;
59492;SDS011;45497;43.996;22.876;2023-01-24T15:31:35;15.13;;;7.70;;
59492;SDS011;45497;43.996;22.876;2023-01-24T15:34:00;10.03;;;5.03;;
59492;SDS011;45497;43.996;22.876;2023-01-24T15:36:30;12.18;;;6.28;;
59492;SDS011;45497;43.996;22.876;2023-01-24T15:38:58;12.87;;;7.17;;
59492;SDS011;45497;43.996;22.876;2023-01-24T15:41:28;11.57;;;6.00;;
59492;SDS011;45497;43.996;22.876;2023-01-24T15:44:18;9.82;;;5.47;;
59492;SDS011;45497;43.996;22.876;2023-01-24T15:46:44;11.07;;;6.30;;
59492;SDS011;45497;43.996;22.876;2023-01-24T15:49:35;11.05;;;5.57;;
59492;SDS011;45497;43.996;22.876;2023-01-24T15:54:36;9.75;;;5.72;;
59492;SDS011;45497;43.996;22.876;2023-01-24T15:57:11;10.40;;;5.70;;
59492;SDS011;45497;43.996;22.876;2023-01-24T15:59:40;13.35;;;6.47;;
59492;SDS011;45497;43.996;22.876;2023-01-24T16:02:11;20.87;;;8.60;;
59492;SDS011;45497;43.996;22.876;2023-01-24T16:04:38;12.18;;;6.28;;
59492;SDS011;45497;43.996;22.876;2023-01-24T16:07:03;12.23;;;6.53;;
59492;SDS011;45497;43.996;22.876;2023-01-24T16:09:29;13.07;;;7.00;;
59492;SDS011;45497;43.996;22.876;2023-01-24T16:11:54;12.90;;;6.75;;
59492;SDS011;45497;43.996;22.876;2023-01-24T16:14:21;15.53;;;7.40;;
59492;SDS011;45497;43.996;22.876;2023-01-24T16:16:48;17.15;;;7.78;;
59492;SDS011;45497;43.996;22.876;2023-01-24T16:19:21;16.63;;;7.47;;
59492;SDS011;45497;43.996;22.876;2023-01-24T16:21:48;13.77;;;7.20;;
59492;SDS011;45497;43.996;22.876;2023-01-24T16:24:14;14.68;;;7.97;;
59492;SDS011;45497;43.996;22.876;2023-01-24T16:26:43;12.73;;;6.47;;
59492;SDS011;45497;43.996;22.876;2023-01-24T16:29:15;10.93;;;6.67;;
59492;SDS011;45497;43.996;22.876;2023-01-24T16:31:44;13.30;;;6.90;;
59492;SDS011;45497;43.996;22.876;2023-01-24T16:34:12;13.90;;;7.00;;
59492;SDS011;45497;43.996;22.876;2023-01-24T16:36:38;10.68;;;6.22;;
59492;SDS011;45497;43.996;22.876;2023-01-24T16:39:04;11.20;;;6.40;;
59492;SDS011;45497;43.996;22.876;2023-01-24T16:41:31;11.98;;;6.20;;
59492;SDS011;45497;43.996;22.876;2023-01-24T16:43:57;12.25;;;6.63;;
59492;SDS011;45497;43.996;22.876;2023-01-24T16:46:23;12.23;;;6.10;;
59492;SDS011;45497;43.996;22.876;2023-01-24T16:48:49;11.63;;;5.87;;
59492;SDS011;45497;43.996;22.876;2023-01-24T16:51:15;11.13;;;5.72;;